Terminal Aerodrome Forecast
Issued by NWS

Home | Current Version | Previous Version | Text Only | Print | Product List | Glossary On
Versions: 1 2 3 4 5 6 7 8 9 10 11 12 13 14
000
FTUS45 KVEF 290540
TAFBIH
TAF
KBIH 290540Z 2906/3006 33008KT P6SM BKN250
     FM291400 VRB06KT P6SM SCT250
     FM291900 16010G18KT P6SM BKN250=

USA.gov is the U.S. government's official web portal to all federal, state and local government web resources and services.